Time;durP1;ratioP1;P1;durP2;ratioP2;P2;SDS_P1;SDS_P2;PMS_P1;PMS_P2;Temp;Humidity;BMP_temperature;BMP_pressure;BME280_temperature;BME280_humidity;BME280_pressure;Samples;Min_cycle;Max_cycle;Signal;HPM_P1;HPM_P2
2021/04/27 00:01:21;;;;;;;7.72;5.22;;;;;;;2.17;69.19;101042.38;1749790;80;20963;-71
2021/04/27 00:03:49;;;;;;;7.05;4.50;;;;;;;2.17;69.22;101050.98;1749762;82;20939;-69
2021/04/27 00:06:17;;;;;;;8.98;5.45;;;;;;;2.15;69.29;101043.70;1749776;82;21002;-70
2021/04/27 00:08:46;;;;;;;6.08;5.15;;;;;;;2.15;69.47;101045.44;1749790;82;21381;-69
2021/04/27 00:11:15;;;;;;;11.53;4.75;;;;;;;2.14;69.56;101047.63;1749827;82;21024;-70
2021/04/27 00:13:43;;;;;;;5.95;4.20;;;;;;;2.14;69.62;101045.88;1749753;82;20940;-72
2021/04/27 00:16:10;;;;;;;6.87;4.55;;;;;;;2.14;69.68;101040.71;1749649;82;21018;-70
2021/04/27 00:18:39;;;;;;;7.75;4.75;;;;;;;2.16;69.56;101041.98;1749777;82;20951;-71
2021/04/27 00:21:07;;;;;;;9.25;4.42;;;;;;;2.15;69.58;101038.97;1749717;80;21204;-72
2021/04/27 00:23:36;;;;;;;8.30;4.22;;;;;;;2.14;69.69;101038.13;1749686;82;20967;-72
2021/04/27 00:26:03;;;;;;;7.17;5.05;;;;;;;2.17;69.71;101042.38;1749741;82;20947;-72
2021/04/27 00:28:32;;;;;;;7.92;5.12;;;;;;;2.18;69.76;101042.78;1749610;82;20934;-72
2021/04/27 00:31:01;;;;;;;8.05;5.12;;;;;;;2.21;69.85;101044.04;1749757;82;20943;-70
2021/04/27 00:33:29;;;;;;;7.25;4.75;;;;;;;2.19;70.23;101046.64;1749779;82;22387;-70
2021/04/27 00:35:57;;;;;;;7.33;4.03;;;;;;;2.20;70.09;101045.78;1749786;82;21448;-71
2021/04/27 00:38:25;;;;;;;9.08;5.03;;;;;;;2.19;70.11;101048.38;1749741;82;21002;-69
2021/04/27 00:40:54;;;;;;;4.75;4.15;;;;;;;2.16;70.18;101041.98;1749709;82;20943;-70
2021/04/27 00:43:22;;;;;;;8.68;4.20;;;;;;;2.16;70.31;101047.16;1749714;80;20911;-70
2021/04/27 00:45:50;;;;;;;7.62;4.67;;;;;;;2.18;69.98;101046.25;1749775;81;21354;-71
2021/04/27 00:48:18;;;;;;;12.13;5.92;;;;;;;2.19;69.70;101047.09;1749688;82;20994;-70
2021/04/27 00:50:47;;;;;;;10.85;5.90;;;;;;;2.21;69.59;101048.77;1749690;82;21018;-71
2021/04/27 00:53:15;;;;;;;12.85;7.72;;;;;;;2.22;69.39;101044.02;1749718;82;20936;-71
2021/04/27 00:55:43;;;;;;;19.05;9.13;;;;;;;2.24;69.20;101049.14;1749831;82;21465;-71
2021/04/27 00:58:11;;;;;;;11.93;7.40;;;;;;;2.24;69.17;101051.73;1740694;81;21380;-71
2021/04/27 01:00:40;;;;;;;12.78;7.87;;;;;;;2.22;69.16;101053.49;1735687;82;21030;-71
2021/04/27 01:03:10;;;;;;;9.73;6.00;;;;;;;2.18;69.20;101055.72;1735730;81;21433;-70
2021/04/27 01:05:40;;;;;;;8.28;5.95;;;;;;;2.17;69.25;101056.61;1735801;82;20947;-69
2021/04/27 01:08:46;;;;;;;8.60;5.53;;;;;;;2.16;69.25;101052.34;1735850;82;21564;-71
2021/04/27 01:11:41;;;;;;;7.70;5.60;;;;;;;2.14;69.47;101051.06;1735879;82;21836;-70
2021/04/27 01:14:30;;;;;;;6.10;4.87;;;;;;;2.15;69.53;101048.87;1735850;82;20963;-69
2021/04/27 01:17:04;;;;;;;7.55;5.15;;;;;;;2.17;69.48;101050.14;1735689;81;21043;-70
2021/04/27 01:19:58;;;;;;;6.92;5.05;;;;;;;2.17;69.42;101048.85;1734875;82;20940;-69
2021/04/27 01:22:57;;;;;;;8.35;5.50;;;;;;;2.18;69.35;101046.66;1725135;82;21039;-70
2021/04/27 01:25:44;;;;;;;9.23;5.40;;;;;;;2.16;69.42;101051.04;1712325;82;21312;-71
2021/04/27 01:28:12;;;;;;;7.67;5.20;;;;;;;2.14;69.51;101047.18;1735674;82;20987;-71
2021/04/27 01:30:41;;;;;;;7.85;5.28;;;;;;;2.12;69.62;101051.97;1735676;81;20948;-70
2021/04/27 01:33:18;;;;;;;8.88;5.47;;;;;;;2.11;69.68;101047.22;1735734;82;20900;-70
2021/04/27 01:35:46;;;;;;;5.83;4.28;;;;;;;2.12;69.85;101056.70;1735720;81;21023;-70
2021/04/27 01:38:17;;;;;;;5.22;4.10;;;;;;;2.09;69.79;101050.30;1735752;82;21815;-71
2021/04/27 01:40:46;;;;;;;7.22;3.98;;;;;;;2.10;69.94;101045.97;1713627;82;20999;-72
2021/04/27 01:43:15;;;;;;;5.92;4.30;;;;;;;2.10;69.81;101045.52;1735731;81;21373;-74
2021/04/27 01:45:45;;;;;;;6.42;4.10;;;;;;;2.10;69.70;101049.41;1735852;81;20952;-71
2021/04/27 01:48:13;;;;;;;5.50;3.65;;;;;;;2.13;69.76;101057.55;1735917;82;20920;-70
2021/04/27 01:50:43;;;;;;;7.92;4.47;;;;;;;2.12;69.67;101051.97;1735844;81;21443;-71
2021/04/27 01:53:31;;;;;;;4.78;4.08;;;;;;;2.09;69.62;101042.54;1735807;81;20959;-71
2021/04/27 01:56:01;;;;;;;7.95;4.58;;;;;;;2.06;69.63;101047.75;1735810;82;21475;-70
2021/04/27 01:58:30;;;;;;;4.55;3.85;;;;;;;2.04;69.95;101058.56;1713597;82;20939;-71
2021/04/27 02:00:59;;;;;;;6.25;4.62;;;;;;;2.04;69.99;101060.70;1735952;82;21441;-71
2021/04/27 02:03:31;;;;;;;5.12;4.08;;;;;;;2.04;70.11;101059.41;1735797;81;21097;-71
2021/04/27 02:06:23;;;;;;;6.78;4.17;;;;;;;2.10;70.26;101053.73;1845977;76;22764;-70
2021/04/27 02:09:11;;;;;;;7.42;4.33;;;;;;;2.04;70.15;101059.41;1818086;78;20939;-70
2021/04/27 02:11:47;;;;;;;6.62;4.22;;;;;;;2.05;70.05;101065.01;1817888;77;21370;-72
2021/04/27 02:14:15;;;;;;;6.97;4.92;;;;;;;2.06;70.10;101051.18;1786891;79;20942;-71
2021/04/27 02:17:04;;;;;;;7.60;4.72;;;;;;;2.07;70.08;101049.02;1817990;79;20935;-69
2021/04/27 02:19:34;;;;;;;7.03;5.00;;;;;;;2.11;70.11;101055.42;1818032;78;20982;-71
2021/04/27 02:22:09;;;;;;;6.15;4.80;;;;;;;2.13;70.11;101050.63;1799527;78;21049;-70
2021/04/27 02:24:39;;;;;;;5.83;5.25;;;;;;;2.15;70.02;101050.16;1815964;79;22250;-70
2021/04/27 02:27:11;;;;;;;6.80;5.25;;;;;;;2.17;69.67;101057.91;1818004;77;20935;-70
2021/04/27 02:29:41;;;;;;;5.45;4.83;;;;;;;2.19;69.55;101055.70;1817999;79;20986;-70
2021/04/27 02:32:09;;;;;;;8.88;5.60;;;;;;;2.23;69.28;101064.27;1817993;78;21029;-73
2021/04/27 02:34:39;;;;;;;6.50;5.20;;;;;;;2.26;69.16;101062.45;1786982;79;21025;-71
2021/04/27 02:37:08;;;;;;;6.75;4.92;;;;;;;2.30;69.15;101064.56;1786903;79;21804;-72
2021/04/27 02:39:38;;;;;;;8.63;6.08;;;;;;;2.34;68.96;101073.13;1817833;78;20927;-71
2021/04/27 02:42:07;;;;;;;8.10;5.70;;;;;;;2.39;68.98;101076.03;1817937;79;20913;-71
2021/04/27 02:44:54;;;;;;;8.63;6.28;;;;;;;2.43;68.71;101079.42;1817928;79;20907;-71
2021/04/27 02:47:28;;;;;;;9.90;7.10;;;;;;;2.49;68.60;101085.79;1813512;79;21009;-70
2021/04/27 02:49:56;;;;;;;9.15;6.92;;;;;;;2.54;68.33;101082.66;1818035;79;21626;-72
2021/04/27 02:52:26;;;;;;;14.70;8.50;;;;;;;2.60;68.27;101083.84;1817908;78;20938;-72
2021/04/27 02:54:58;;;;;;;9.70;6.10;;;;;;;2.65;68.05;101083.30;1817855;79;21049;-70
2021/04/27 02:57:27;;;;;;;6.60;5.60;;;;;;;2.68;67.80;101076.75;1818029;79;20919;-70
2021/04/27 02:59:55;;;;;;;6.12;4.72;;;;;;;2.73;67.63;101081.84;1818033;78;20918;-70
2021/04/27 03:02:24;;;;;;;7.05;5.05;;;;;;;2.78;67.57;101080.03;1818027;77;21382;-70
2021/04/27 03:04:52;;;;;;;7.03;4.80;;;;;;;2.82;67.33;101077.77;1817976;77;20982;-71
2021/04/27 03:07:22;;;;;;;5.97;4.60;;;;;;;2.87;67.27;101075.11;1815970;77;21555;-71
2021/04/27 03:09:50;;;;;;;6.50;5.15;;;;;;;2.92;66.89;101079.74;1818029;77;20935;-70
2021/04/27 03:12:18;;;;;;;10.13;5.50;;;;;;;2.97;66.73;101080.94;1817994;79;20879;-72
2021/04/27 03:14:48;;;;;;;9.65;5.65;;;;;;;3.03;66.51;101086.00;1817782;77;21360;-68
2021/04/27 03:17:17;;;;;;;7.70;5.75;;;;;;;3.07;66.53;101084.59;1817381;78;20965;-71
2021/04/27 03:19:48;;;;;;;5.20;4.70;;;;;;;3.11;66.35;101091.84;1816904;78;21344;-70
2021/04/27 03:22:18;;;;;;;7.30;5.97;;;;;;;3.16;66.05;101091.33;1816906;79;21045;-70
2021/04/27 03:24:46;;;;;;;10.88;6.33;;;;;;;3.20;65.92;101093.39;1817341;79;20938;-71
2021/04/27 03:27:15;;;;;;;8.10;5.12;;;;;;;3.25;65.80;101097.59;1817269;79;21796;-70
2021/04/27 03:29:45;;;;;;;10.23;5.50;;;;;;;3.28;65.35;101091.04;1812850;77;21503;-72
2021/04/27 03:32:13;;;;;;;8.93;5.08;;;;;;;3.35;65.26;101100.83;1817455;77;21405;-73
2021/04/27 03:34:42;;;;;;;7.75;5.70;;;;;;;3.40;65.12;101097.71;1817359;79;21431;-70
2021/04/27 03:37:10;;;;;;;7.22;5.50;;;;;;;3.47;65.16;101099.72;1817376;77;20997;-71
2021/04/27 03:39:38;;;;;;;10.10;5.75;;;;;;;3.53;64.81;101096.55;1817379;79;21460;-72
2021/04/27 03:42:07;;;;;;;8.55;5.85;;;;;;;3.62;64.54;101090.71;1817246;79;20903;-72
2021/04/27 03:44:35;;;;;;;10.60;5.33;;;;;;;3.70;64.33;101090.09;1817495;79;20939;-72
2021/04/27 03:47:05;;;;;;;7.00;4.95;;;;;;;3.76;64.12;101091.25;1817260;79;21499;-71
2021/04/27 03:49:34;;;;;;;6.95;5.08;;;;;;;3.81;63.71;101103.66;1817337;77;21511;-72
2021/04/27 03:52:03;;;;;;;6.05;5.17;;;;;;;3.85;63.43;101097.51;1817340;79;21780;-72
2021/04/27 03:54:31;;;;;;;6.97;5.33;;;;;;;3.87;63.59;101091.84;1817272;79;21002;-71
2021/04/27 03:57:02;;;;;;;7.75;5.62;;;;;;;3.90;63.57;101088.31;1817381;77;21349;-72
2021/04/27 03:59:32;;;;;;;5.37;4.87;;;;;;;3.93;63.79;101094.29;1817094;79;21006;-74
2021/04/27 04:02:00;;;;;;;7.15;4.55;;;;;;;3.95;63.70;101100.27;1817376;78;21557;-73
2021/04/27 04:04:30;;;;;;;6.22;4.72;;;;;;;4.00;63.62;101092.36;1817286;78;21272;-73
2021/04/27 04:07:08;;;;;;;6.25;4.30;;;;;;;4.03;63.57;101092.76;1810578;79;20919;-72
2021/04/27 04:09:55;;;;;;;7.60;5.00;;;;;;;4.09;63.53;101095.17;1817322;79;20943;-70
2021/04/27 04:12:27;;;;;;;5.53;4.70;;;;;;;4.11;63.33;101091.67;1817210;79;20923;-70
2021/04/27 04:14:58;;;;;;;5.67;4.17;;;;;;;4.13;63.18;101092.45;1816815;77;20926;-70
2021/04/27 04:17:28;;;;;;;5.95;4.72;;;;;;;4.13;63.31;101091.16;1817004;79;21536;-71
2021/04/27 04:19:57;;;;;;;6.28;4.40;;;;;;;4.13;63.40;101087.27;1817203;79;20966;-75
2021/04/27 04:22:25;;;;;;;5.53;4.45;;;;;;;4.13;63.50;101088.56;1817306;79;20954;-71
2021/04/27 04:24:59;;;;;;;6.75;4.47;;;;;;;4.18;63.52;101092.79;1816429;77;20939;-70
2021/04/27 04:27:27;;;;;;;6.10;4.60;;;;;;;4.24;63.41;101094.78;1817311;77;20927;-71
2021/04/27 04:30:01;;;;;;;5.25;3.98;;;;;;;4.32;63.45;101097.20;1814409;79;21483;-73
2021/04/27 04:32:35;;;;;;;7.72;4.70;;;;;;;4.40;63.28;101083.99;1799608;79;20895;-77
2021/04/27 04:35:20;;;;;;;5.87;4.65;;;;;;;4.54;63.19;101082.73;1852647;77;22643;-82
2021/04/27 04:38:08;;;;;;;5.97;4.60;;;;;;;4.61;62.74;101091.20;1750408;82;20935;-82
2021/04/27 04:40:58;;;;;;;6.10;4.53;;;;;;;4.71;62.62;101076.20;1820131;78;21384;-79
2021/04/27 04:43:46;;;;;;;5.15;4.17;;;;;;;4.78;62.31;101079.91;1750283;81;20988;-79
2021/04/27 04:46:32;;;;;;;4.97;4.47;;;;;;;4.85;62.36;101080.58;1820026;78;21002;-81
2021/04/27 04:49:19;;;;;;;5.62;4.55;;;;;;;4.92;62.25;101088.59;1750091;81;20902;-80
2021/04/27 04:51:56;;;;;;;5.58;4.80;;;;;;;4.97;62.02;101093.20;1820143;78;21490;-79
2021/04/27 04:54:41;;;;;;;5.00;4.50;;;;;;;5.01;62.06;101090.08;1816648;78;22058;-79
2021/04/27 04:57:11;;;;;;;7.62;5.15;;;;;;;5.04;61.99;101086.07;1817098;78;21029;-81
2021/04/27 04:59:40;;;;;;;8.80;5.10;;;;;;;5.09;61.88;101089.83;1750128;81;21859;-79
2021/04/27 05:02:08;;;;;;;7.72;5.30;;;;;;;5.10;61.69;101087.20;1819968;78;21053;-80
2021/04/27 05:04:53;;;;;;;4.75;4.30;;;;;;;5.12;61.49;101089.77;1706974;82;20985;-80
2021/04/27 05:07:46;;;;;;;5.92;4.60;;;;;;;5.12;61.59;101088.46;1796134;78;21123;-81
2021/04/27 05:10:25;;;;;;;8.03;4.50;;;;;;;5.10;61.41;101083.30;1711813;82;20954;-80
2021/04/27 05:13:10;;;;;;;6.00;4.80;;;;;;;5.10;60.71;101080.70;1818008;78;21452;-82
2021/04/27 05:15:38;;;;;;;4.92;4.05;;;;;;;5.09;60.49;101070.34;1750138;81;20970;-81
2021/04/27 05:18:07;;;;;;;7.37;5.15;;;;;;;5.08;60.62;101074.69;1820001;78;21439;-81
2021/04/27 05:20:35;;;;;;;6.12;4.65;;;;;;;5.07;60.58;101067.80;1750049;81;21378;-80
2021/04/27 05:23:05;;;;;;;6.05;4.85;;;;;;;5.09;60.74;101075.53;1819885;78;20986;-82
2021/04/27 05:25:35;;;;;;;7.80;4.75;;;;;;;5.13;60.68;101071.95;1818492;78;20928;-81
2021/04/27 05:28:04;;;;;;;6.10;4.50;;;;;;;5.17;60.80;101078.31;1819048;78;20923;-82
2021/04/27 05:30:32;;;;;;;5.10;4.28;;;;;;;5.23;60.85;101080.34;1750298;81;21052;-81
2021/04/27 05:33:00;;;;;;;6.28;4.67;;;;;;;5.28;60.97;101085.79;1819876;78;22071;-82
2021/04/27 05:35:28;;;;;;;9.43;4.25;;;;;;;5.37;61.20;101085.95;1750963;82;20953;-81
2021/04/27 05:37:57;;;;;;;6.12;5.03;;;;;;;5.45;60.64;101079.20;1819969;78;20930;-74
2021/04/27 05:40:26;;;;;;;6.20;3.90;;;;;;;5.52;60.63;101072.48;1750172;82;20949;-84
2021/04/27 05:42:54;;;;;;;6.28;4.20;;;;;;;5.60;59.71;101069.62;1820054;78;21384;-83
2021/04/27 05:45:22;;;;;;;4.12;3.65;;;;;;;5.66;59.24;101060.78;1750204;81;21788;-83
2021/04/27 05:47:51;;;;;;;8.70;3.47;;;;;;;5.75;58.90;101060.02;1820679;78;20998;-82
2021/04/27 05:50:19;;;;;;;7.70;4.70;;;;;;;5.87;58.53;101060.08;1751823;82;20977;-82
2021/04/27 05:52:47;;;;;;;5.97;3.98;;;;;;;6.03;58.48;101062.20;1821283;78;20935;-83
2021/04/27 05:55:16;;;;;;;17.52;8.28;;;;;;;6.23;58.64;101055.39;1751306;81;20949;-84
2021/04/27 05:57:44;;;;;;;6.05;3.70;;;;;;;6.44;58.95;101064.19;1820439;78;21371;-86
2021/04/27 06:00:14;;;;;;;6.65;3.60;;;;;;;6.71;58.52;101074.98;1750592;81;21025;-82
2021/04/27 06:02:43;;;;;;;6.05;3.50;;;;;;;6.92;58.13;101063.77;1819870;78;20982;-82
2021/04/27 06:05:12;;;;;;;4.95;3.08;;;;;;;7.12;56.43;101067.38;1749804;81;21013;-83
2021/04/27 06:07:39;;;;;;;3.10;2.67;;;;;;;7.26;55.22;101075.05;1819568;78;20942;-84
2021/04/27 06:10:09;;;;;;;3.15;2.62;;;;;;;7.39;54.32;101074.59;1749810;81;21499;-83
2021/04/27 06:12:37;;;;;;;5.00;2.60;;;;;;;7.54;52.46;101074.45;1819751;78;20978;-81
2021/04/27 06:15:06;;;;;;;3.67;2.50;;;;;;;7.66;51.68;101072.62;1749846;81;20981;-82
2021/04/27 06:17:35;;;;;;;2.98;2.33;;;;;;;7.79;50.90;101077.74;1819556;78;20958;-81
2021/04/27 06:20:07;;;;;;;4.62;2.10;;;;;;;7.94;50.22;101080.19;1749774;82;21020;-80
2021/04/27 06:22:35;;;;;;;3.20;2.30;;;;;;;8.07;50.37;101083.11;1819760;78;21206;-81
2021/04/27 06:25:06;;;;;;;3.40;2.50;;;;;;;8.18;50.43;101087.45;1749860;81;20957;-81
2021/04/27 06:27:34;;;;;;;5.22;2.95;;;;;;;8.24;50.20;101070.19;1819472;78;20986;-81
2021/04/27 06:30:06;;;;;;;3.85;2.50;;;;;;;8.23;50.79;101075.03;1750174;82;21454;-71
2021/04/27 06:32:35;;;;;;;5.45;2.80;;;;;;;8.22;51.04;101083.77;1819410;78;20990;-70
2021/04/27 06:35:04;;;;;;;5.30;2.90;;;;;;;8.19;51.55;101078.69;1754441;81;21835;-70
2021/04/27 06:37:33;;;;;;;6.67;3.47;;;;;;;8.17;52.10;101094.03;1789309;80;21547;-70
2021/04/27 06:40:01;;;;;;;3.95;3.50;;;;;;;8.09;52.74;101092.61;1758090;81;20963;-72
2021/04/27 06:42:29;;;;;;;5.50;3.58;;;;;;;8.02;53.35;101085.08;1789335;80;21373;-68
2021/04/27 06:44:56;;;;;;;3.60;3.00;;;;;;;7.96;53.98;101087.50;1756699;81;21029;-70
2021/04/27 06:47:24;;;;;;;5.62;3.65;;;;;;;7.93;54.03;101091.98;1724849;83;21495;-70
2021/04/27 06:49:54;;;;;;;3.55;3.05;;;;;;;7.84;54.55;101092.75;1724732;83;20947;-69
2021/04/27 06:52:21;;;;;;;5.35;3.50;;;;;;;7.78;54.54;101097.38;1724849;83;21038;-68
2021/04/27 06:54:49;;;;;;;5.17;3.60;;;;;;;7.71;55.14;101094.63;1724767;83;21074;-69
2021/04/27 06:57:17;;;;;;;6.03;3.00;;;;;;;7.68;55.66;101095.14;1724826;83;20959;-70
2021/04/27 06:59:45;;;;;;;4.92;3.87;;;;;;;7.68;55.96;101103.44;1724802;83;21266;-70
2021/04/27 07:02:13;;;;;;;7.08;3.72;;;;;;;7.72;56.06;101112.00;1724847;83;21483;-69
2021/04/27 07:04:42;;;;;;;5.00;3.05;;;;;;;7.75;55.95;101109.27;1724883;83;21575;-76
2021/04/27 07:07:10;;;;;;;6.05;3.40;;;;;;;7.76;56.00;101107.03;1724843;83;22193;-75
2021/04/27 07:09:37;;;;;;;4.65;3.75;;;;;;;7.77;56.27;101114.81;1724942;83;21365;-75
2021/04/27 07:12:06;;;;;;;4.55;3.90;;;;;;;7.78;56.65;101120.88;1724931;83;21405;-76
2021/04/27 07:14:35;;;;;;;5.35;3.17;;;;;;;7.78;56.68;101121.75;1724749;83;21627;-76
2021/04/27 07:17:06;;;;;;;3.75;3.00;;;;;;;7.81;56.92;101120.30;1724922;83;21460;-76
2021/04/27 07:19:34;;;;;;;5.70;4.20;;;;;;;7.85;56.52;101123.66;1724783;83;21452;-75
2021/04/27 07:22:02;;;;;;;4.10;3.25;;;;;;;7.89;56.51;101123.47;1724820;83;21384;-71
2021/04/27 07:24:31;;;;;;;6.50;4.78;;;;;;;7.97;56.85;101130.97;1724807;83;21386;-69
2021/04/27 07:26:59;;;;;;;4.72;3.70;;;;;;;8.07;57.54;101127.52;1724708;83;20975;-69
2021/04/27 07:29:27;;;;;;;4.47;3.22;;;;;;;8.21;57.62;101130.42;1724756;83;20959;-69
2021/04/27 07:31:55;;;;;;;5.08;3.05;;;;;;;8.32;57.82;101122.59;1724858;83;21532;-70
2021/04/27 07:34:23;;;;;;;4.60;3.17;;;;;;;8.38;57.17;101128.41;1723791;83;21572;-69
2021/04/27 07:36:51;;;;;;;3.52;3.22;;;;;;;8.40;57.29;101128.33;1784527;80;21902;-72
2021/04/27 07:39:19;;;;;;;6.95;5.30;;;;;;;8.41;58.11;101126.16;1747823;82;20975;-75
2021/04/27 07:41:48;;;;;;;4.67;2.95;;;;;;;8.46;58.23;101123.72;1785340;80;20938;-72
2021/04/27 07:44:16;;;;;;;3.10;2.50;;;;;;;8.51;57.80;101127.44;1785326;80;21459;-74
2021/04/27 07:46:44;;;;;;;3.92;2.70;;;;;;;8.50;56.88;101121.37;1785362;80;21003;-74
2021/04/27 07:49:13;;;;;;;3.35;2.42;;;;;;;8.53;57.04;101122.99;1785322;80;21818;-73
2021/04/27 07:51:42;;;;;;;3.35;2.45;;;;;;;8.61;57.11;101119.59;1747813;82;21030;-72
2021/04/27 07:54:10;;;;;;;2.55;2.20;;;;;;;8.68;56.67;101111.87;1785247;80;20947;-72
2021/04/27 07:56:38;;;;;;;4.78;2.37;;;;;;;8.77;56.57;101117.15;1785281;80;20947;-74
2021/04/27 07:59:06;;;;;;;4.00;2.65;;;;;;;8.86;56.46;101110.20;1785343;80;20910;-71
2021/04/27 08:01:35;;;;;;;3.33;2.98;;;;;;;8.95;56.08;101112.86;1785120;80;21216;-74
2021/04/27 08:04:05;;;;;;;3.27;2.30;;;;;;;9.00;56.02;101116.11;1785247;79;20934;-73
2021/04/27 08:06:35;;;;;;;2.42;2.22;;;;;;;9.03;54.55;101119.91;1785481;80;21575;-75
2021/04/27 08:09:05;;;;;;;3.33;2.75;;;;;;;8.98;53.95;101117.97;1784971;80;20899;-73
2021/04/27 08:11:34;;;;;;;5.70;2.58;;;;;;;8.89;54.13;101126.20;1785183;80;20983;-72
2021/04/27 08:14:02;;;;;;;3.95;3.08;;;;;;;8.77;54.59;101115.00;1747937;82;22380;-74
2021/04/27 08:16:30;;;;;;;3.17;2.80;;;;;;;8.69;55.22;101124.48;1785331;80;20966;-73
2021/04/27 08:18:59;;;;;;;7.12;5.40;;;;;;;8.69;55.55;101118.81;1747808;82;20939;-73
2021/04/27 08:21:29;;;;;;;6.87;3.65;;;;;;;8.77;55.92;101111.08;1785253;80;20931;-72
2021/04/27 08:23:57;;;;;;;3.52;3.20;;;;;;;8.86;55.70;101125.89;1748014;81;20963;-73
2021/04/27 08:26:27;;;;;;;4.55;2.67;;;;;;;8.91;55.73;101104.32;1785292;80;21444;-73
2021/04/27 08:28:55;;;;;;;4.83;3.05;;;;;;;8.94;56.09;101108.56;1747637;82;21600;-75
2021/04/27 08:31:25;;;;;;;4.55;3.00;;;;;;;8.98;55.97;101103.58;1780849;80;20954;-75
2021/04/27 08:33:54;;;;;;;3.80;3.40;;;;;;;9.02;56.13;101090.73;1785253;80;20990;-73
2021/04/27 08:36:23;;;;;;;5.70;4.60;;;;;;;9.06;56.11;101101.44;1785288;80;21029;-79
2021/04/27 08:38:51;;;;;;;2.55;2.35;;;;;;;9.10;56.18;101093.00;1764572;80;21772;-75
2021/04/27 08:41:24;;;;;;;2.55;2.30;;;;;;;9.12;55.33;101092.48;1757179;80;21029;-75
2021/04/27 08:43:53;;;;;;;3.05;2.80;;;;;;;9.14;55.63;101090.64;1757251;81;21416;-73
2021/04/27 08:46:22;;;;;;;3.52;3.22;;;;;;;9.21;55.79;101091.20;1757138;80;20982;-75
2021/04/27 08:48:50;;;;;;;5.47;2.72;;;;;;;9.30;55.76;101093.39;1757144;80;20946;-72
2021/04/27 08:51:18;;;;;;;3.75;3.10;;;;;;;9.32;55.28;101086.31;1757298;80;22457;-74
2021/04/27 08:53:48;;;;;;;6.05;3.72;;;;;;;9.30;55.44;101082.92;1755061;81;20973;-73
2021/04/27 08:56:17;;;;;;;5.08;2.92;;;;;;;9.24;55.79;101080.58;1757178;80;20934;-75
2021/04/27 08:58:47;;;;;;;3.08;2.77;;;;;;;9.25;56.04;101088.80;1757134;80;20910;-72
2021/04/27 09:01:15;;;;;;;4.05;2.85;;;;;;;9.26;55.94;101080.05;1757222;80;20922;-77
2021/04/27 09:03:50;;;;;;;3.58;2.60;;;;;;;9.30;55.86;101082.45;1757144;81;21794;-75
2021/04/27 09:06:20;;;;;;;3.23;2.20;;;;;;;9.32;55.93;101076.69;1757393;81;20942;-74
2021/04/27 09:08:50;;;;;;;3.20;2.45;;;;;;;9.29;55.94;101078.59;1757111;81;21181;-74
2021/04/27 09:14:30;;;;;;;2.87;2.50;;;;;;;9.24;56.49;101071.42;1890061;76;22711;-75
2021/04/27 09:17:04;;;;;;;4.80;2.95;;;;;;;9.14;56.94;101077.56;1860972;77;20966;-74
2021/04/27 09:19:49;;;;;;;3.33;2.00;;;;;;;9.09;56.92;101073.85;1861158;77;21364;-73
2021/04/27 09:22:27;;;;;;;2.20;2.02;;;;;;;9.07;56.83;101073.07;1860863;77;20954;-73
2021/04/27 09:25:02;;;;;;;2.95;2.33;;;;;;;9.03;57.14;101071.52;1860947;77;20918;-74
2021/04/27 09:27:46;;;;;;;2.33;2.12;;;;;;;9.01;57.24;101065.50;1860972;77;20930;-73
2021/04/27 09:30:22;;;;;;;4.47;2.77;;;;;;;9.01;57.83;101073.81;1860998;76;20911;-75
2021/04/27 09:33:07;;;;;;;2.70;2.50;;;;;;;9.04;58.09;101067.13;1861064;77;21335;-75
2021/04/27 09:35:41;;;;;;;2.47;1.60;;;;;;;9.05;57.66;101077.52;1861122;77;20981;-75
2021/04/27 09:38:30;;;;;;;4.25;2.90;;;;;;;9.05;57.18;101084.06;1860936;77;20981;-75
2021/04/27 09:41:04;;;;;;;2.55;2.33;;;;;;;9.01;57.08;101079.05;1860883;77;20978;-73
2021/04/27 09:43:45;;;;;;;2.87;2.62;;;;;;;8.92;57.63;101069.85;1860936;77;20926;-73
2021/04/27 09:46:17;;;;;;;2.58;2.37;;;;;;;8.88;57.92;101080.06;1860934;77;21188;-74
2021/04/27 09:48:54;;;;;;;5.75;4.22;;;;;;;8.85;58.22;101075.83;1860772;77;21020;-72
2021/04/27 09:51:27;;;;;;;4.72;2.98;;;;;;;8.82;58.07;101079.02;1857744;76;20890;-75
2021/04/27 09:54:01;;;;;;;3.20;2.90;;;;;;;8.78;58.17;101076.16;1858791;77;21028;-75
2021/04/27 09:56:50;;;;;;;;;;;;;;;8.78;58.59;101082.69;1758461;80;21398;-72
2021/04/27 09:59:28;;;;;;;2.95;2.45;;;;;;;8.76;58.86;101072.32;1755777;80;21376;-74
2021/04/27 10:02:04;;;;;;;3.60;3.30;;;;;;;8.75;58.97;101073.22;1755711;80;21020;-75
2021/04/27 10:04:33;;;;;;;3.70;3.40;;;;;;;8.73;59.06;101080.75;1755702;80;20967;-74
2021/04/27 10:07:02;;;;;;;4.83;3.17;;;;;;;8.68;59.45;101076.57;1755810;81;21490;-73
2021/04/27 10:09:32;;;;;;;4.20;2.83;;;;;;;8.68;59.74;101079.19;1755825;80;20988;-74
2021/04/27 10:12:00;;;;;;;2.83;2.62;;;;;;;8.67;60.24;101082.73;1755842;80;22304;-72
2021/04/27 10:14:29;;;;;;;3.25;2.95;;;;;;;8.66;60.11;101078.87;1799447;77;20952;-73
2021/04/27 10:16:57;;;;;;;3.62;2.92;;;;;;;8.62;60.07;101074.69;1856404;77;21556;-74
2021/04/27 10:19:26;;;;;;;2.67;2.47;;;;;;;8.57;60.14;101072.75;1856354;76;21382;-73
2021/04/27 10:21:54;;;;;;;10.20;2.45;;;;;;;8.52;60.29;101078.64;1856351;76;20932;-72
2021/04/27 10:24:24;;;;;;;4.53;2.90;;;;;;;8.46;60.86;101082.36;1856102;76;21351;-74
2021/04/27 10:26:52;;;;;;;4.67;2.55;;;;;;;8.41;61.18;101083.03;1855675;76;20944;-71
2021/04/27 10:29:24;;;;;;;3.20;2.45;;;;;;;8.34;61.86;101082.84;1855742;76;20939;-74
2021/04/27 10:32:22;;;;;;;2.40;2.20;;;;;;;8.32;62.25;101072.95;1855779;76;20924;-77
2021/04/27 10:35:04;;;;;;;2.65;2.30;;;;;;;8.28;62.12;101083.98;1855861;76;20924;-80
2021/04/27 10:38:04;;;;;;;4.67;2.87;;;;;;;8.27;62.25;101083.56;1855769;76;22340;-75
2021/04/27 10:40:52;;;;;;;4.80;2.05;;;;;;;8.24;62.16;101079.80;1765737;80;21059;-77
2021/04/27 10:43:34;;;;;;;2.70;2.45;;;;;;;8.23;62.07;101075.03;1765707;80;21547;-75
2021/04/27 10:46:14;;;;;;;2.62;2.30;;;;;;;8.22;61.66;101074.63;1765688;80;20956;-78
2021/04/27 10:49:19;;;;;;;2.20;1.90;;;;;;;8.25;61.06;101085.42;1820116;77;22814;-77
2021/04/27 10:51:48;;;;;;;3.33;2.05;;;;;;;8.16;60.77;101084.48;1692665;84;21083;-76
2021/04/27 10:54:21;;;;;;;3.12;2.80;;;;;;;8.09;61.01;101082.16;1667941;86;21170;-76
2021/04/27 10:57:10;;;;;;;2.83;2.00;;;;;;;8.04;61.29;101085.40;1692730;84;20992;-75
2021/04/27 11:00:01;;;;;;;2.60;1.60;;;;;;;8.00;61.64;101082.52;1692693;84;20987;-77
2021/04/27 11:02:31;;;;;;;4.65;1.82;;;;;;;7.96;61.47;101077.48;1692649;84;21558;-75
2021/04/27 11:05:15;;;;;;;2.22;1.80;;;;;;;7.91;61.46;101082.91;1692795;84;20966;-76
2021/04/27 11:07:44;;;;;;;3.10;2.33;;;;;;;7.85;61.86;101088.41;1692657;84;21900;-75
2021/04/27 11:10:19;;;;;;;3.45;2.67;;;;;;;7.82;62.47;101085.90;1692859;84;20958;-76
2021/04/27 11:13:00;;;;;;;6.10;2.92;;;;;;;7.79;62.61;101085.58;1690974;84;20990;-76
2021/04/27 11:15:33;;;;;;;2.65;2.05;;;;;;;7.79;62.60;101086.04;1692654;84;20970;-77
2021/04/27 11:18:18;;;;;;;5.35;2.27;;;;;;;7.80;62.71;101090.33;1692287;83;21057;-77
2021/04/27 11:21:07;;;;;;;5.75;3.37;;;;;;;7.80;63.00;101079.89;1692895;84;21417;-77
2021/04/27 11:23:56;;;;;;;3.17;2.87;;;;;;;7.81;63.05;101086.36;1692698;84;21030;-75
2021/04/27 11:26:39;;;;;;;2.47;2.25;;;;;;;7.82;63.75;101091.13;1692687;84;21021;-76
2021/04/27 11:29:20;;;;;;;1.80;1.65;;;;;;;7.83;63.87;101092.84;1760074;81;20955;-75
2021/04/27 11:32:15;;;;;;;2.65;2.22;;;;;;;7.82;64.17;101101.10;1760397;81;20942;-77
2021/04/27 11:35:00;;;;;;;2.40;2.20;;;;;;;7.79;64.60;101093.87;1767463;81;21747;-78
2021/04/27 11:37:32;;;;;;;2.27;2.05;;;;;;;7.72;64.68;101091.97;1766749;81;21337;-78
2021/04/27 11:40:14;;;;;;;1.95;1.75;;;;;;;7.66;65.16;101090.90;1769294;81;20950;-82
2021/04/27 11:42:44;;;;;;;2.30;2.10;;;;;;;7.60;65.15;101088.09;1769985;80;20994;-83
2021/04/27 11:45:18;;;;;;;3.72;2.25;;;;;;;7.59;65.25;101082.92;1770352;78;20986;-81
2021/04/27 11:47:48;;;;;;;2.58;2.37;;;;;;;7.58;65.41;101083.39;1760315;80;21310;-83
2021/04/27 11:50:24;;;;;;;5.12;3.85;;;;;;;7.60;65.79;101085.92;1747528;80;20940;-82
2021/04/27 11:53:02;;;;;;;6.85;3.87;;;;;;;7.65;66.07;101087.45;1747632;80;21030;-80
2021/04/27 11:55:42;;;;;;;7.35;4.75;;;;;;;7.73;66.23;101085.81;1735451;80;20914;-79
2021/04/27 11:58:30;;;;;;;6.05;4.10;;;;;;;7.85;65.75;101082.72;1746633;78;20955;-80
2021/04/27 12:01:08;;;;;;;3.95;2.67;;;;;;;7.96;65.03;101077.48;1746087;80;21207;-81
2021/04/27 12:03:45;;;;;;;7.05;4.05;;;;;;;8.05;64.29;101087.58;1745571;80;20920;-80